createdAt,value
2019-02-15T00:01:46.833Z,0.51
2019-02-15T00:04:17.493Z,0.46
2019-02-15T00:06:47.964Z,0.39
2019-02-15T00:09:18.189Z,0.36
2019-02-15T00:11:48.760Z,0.40
2019-02-15T00:14:19.813Z,0.38
2019-02-15T00:16:50.412Z,0.34
2019-02-15T00:19:30.690Z,0.29
2019-02-15T00:22:01.226Z,0.22
2019-02-15T00:24:31.831Z,0.19
2019-02-15T00:27:02.434Z,0.20
2019-02-15T00:29:32.642Z,0.29
2019-02-15T00:32:03.253Z,0.31
2019-02-15T00:34:33.499Z,0.48
2019-02-15T00:37:04.202Z,0.55
2019-02-15T00:39:35.218Z,0.64
2019-02-15T00:42:06.053Z,0.63
2019-02-15T00:44:36.784Z,0.61
2019-02-15T00:47:25.105Z,0.55
2019-02-15T00:50:27.032Z,0.67
2019-02-15T00:53:15.477Z,0.71
2019-02-15T00:56:04.886Z,0.58
2019-02-15T00:58:54.074Z,0.59
2019-02-15T01:01:49.173Z,0.43
2019-02-15T01:04:51.136Z,0.36
2019-02-15T01:07:49.298Z,0.36
2019-02-15T01:10:34.233Z,0.32
2019-02-15T01:13:08.564Z,0.21
2019-02-15T01:15:39.287Z,0.13
2019-02-15T01:18:09.595Z,0.25
2019-02-15T01:20:40.145Z,0.22
2019-02-15T01:23:10.475Z,0.18
2019-02-15T01:25:45.989Z,0.13
2019-02-15T01:28:22.897Z,0.07
2019-02-15T01:31:13.492Z,-0.18
2019-02-15T01:34:06.557Z,-0.18
2019-02-15T01:37:02.377Z,-0.27
2019-02-15T01:39:53.585Z,-0.33
2019-02-15T01:42:42.143Z,-0.33
2019-02-15T01:45:17.375Z,-0.39
2019-02-15T01:47:49.388Z,-0.43
2019-02-15T01:50:19.573Z,-0.50
2019-02-15T01:52:49.870Z,-0.54
2019-02-15T01:55:20.793Z,-0.61
2019-02-15T01:57:51.666Z,-0.65
2019-02-15T02:00:24.015Z,-0.69
2019-02-15T02:02:54.655Z,-0.73
2019-02-15T02:05:25.275Z,-0.75
2019-02-15T02:07:55.616Z,-0.76
2019-02-15T02:10:27.385Z,-0.78
2019-02-15T02:12:58.334Z,-0.84
2019-02-15T02:15:28.957Z,-0.83
2019-02-15T02:17:59.582Z,-0.91
2019-02-15T02:20:30.902Z,-0.99
2019-02-15T02:23:01.846Z,-1.02
2019-02-15T02:25:32.499Z,-1.03
2019-02-15T02:28:02.718Z,-1.07
2019-02-15T02:30:33.275Z,-1.09
2019-02-15T02:33:03.574Z,-1.13
2019-02-15T02:35:33.853Z,-1.14
2019-02-15T02:38:04.171Z,-1.16
2019-02-15T02:40:34.730Z,-1.19
2019-02-15T02:43:04.969Z,-1.19
2019-02-15T02:45:35.517Z,-1.19
2019-02-15T02:48:06.146Z,-1.19
2019-02-15T02:50:36.791Z,-1.16
2019-02-15T02:53:07.517Z,-1.19
2019-02-15T02:55:39.274Z,-1.24
2019-02-15T02:58:09.894Z,-1.24
2019-02-15T03:00:40.157Z,-1.23
2019-02-15T03:03:10.950Z,-1.22
2019-02-15T03:05:41.881Z,-1.16
2019-02-15T03:08:12.225Z,-1.14
2019-02-15T03:10:42.498Z,-1.08
2019-02-15T03:13:13.083Z,-1.15
2019-02-15T03:15:43.342Z,-1.27
2019-02-15T03:19:37.298Z,-1.43
2019-02-15T03:22:08.468Z,-1.48
2019-02-15T03:24:39.375Z,-1.51
2019-02-15T03:27:10.027Z,-1.56
2019-02-15T03:29:40.309Z,-1.55
2019-02-15T03:32:10.591Z,-1.57
2019-02-15T03:34:41.186Z,-1.57
2019-02-15T03:37:33.525Z,-1.60
2019-02-15T03:40:08.668Z,-1.67
2019-02-15T03:42:38.927Z,-1.67
2019-02-15T03:45:09.522Z,-1.64
2019-02-15T03:47:40.302Z,-1.65
2019-02-15T03:50:12.004Z,-1.66
2019-02-15T03:52:42.646Z,-1.63
2019-02-15T03:55:12.963Z,-1.59
2019-02-15T03:57:43.503Z,-1.56
2019-02-15T04:00:14.549Z,-1.46
2019-02-15T04:02:45.177Z,-1.46
2019-02-15T04:05:16.831Z,-1.47
2019-02-15T04:07:47.769Z,-1.38
2019-02-15T04:10:18.397Z,-1.38
2019-02-15T04:12:49.029Z,-1.29
2019-02-15T04:15:19.309Z,-1.38
2019-02-15T04:17:49.538Z,-1.31
2019-02-15T04:20:20.106Z,-1.33
2019-02-15T04:22:50.738Z,-1.39
2019-02-15T04:25:21.371Z,-1.43
2019-02-15T04:27:52.106Z,-1.42
2019-02-15T04:30:22.749Z,-1.46
2019-02-15T04:32:53.743Z,-1.53
2019-02-15T04:35:25.016Z,-1.48
2019-02-15T04:37:55.674Z,-1.32
2019-02-15T04:40:25.936Z,-1.22
2019-02-15T04:42:56.472Z,-1.04
2019-02-15T04:45:26.794Z,-1.05
2019-02-15T04:47:57.365Z,-1.14
2019-02-15T04:50:28.700Z,-1.19
2019-02-15T04:52:59.352Z,-1.19
2019-02-15T04:55:30.380Z,-1.00
2019-02-15T04:58:00.918Z,-1.09
2019-02-15T05:00:31.185Z,-1.19
2019-02-15T05:03:01.781Z,-1.20
2019-02-15T05:05:32.092Z,-1.24
2019-02-15T05:08:02.966Z,-1.30
2019-02-15T05:10:33.216Z,-1.40
2019-02-15T05:13:03.446Z,-1.52
2019-02-15T05:15:34.524Z,-1.62
2019-02-15T05:18:04.825Z,-1.62
2019-02-15T05:20:36.097Z,-1.72
2019-02-15T05:23:06.693Z,-1.70
2019-02-15T05:25:37.014Z,-1.67
2019-02-15T05:28:09.006Z,-1.70
2019-02-15T05:30:39.948Z,-1.77
2019-02-15T05:33:10.495Z,-1.82
2019-02-15T05:35:42.237Z,-1.86
2019-02-15T05:38:13.174Z,-1.90
2019-02-15T05:40:43.832Z,-1.89
2019-02-15T05:43:14.450Z,-1.90
2019-02-15T05:45:46.821Z,-1.94
2019-02-15T05:48:18.162Z,-1.98
2019-02-15T05:50:48.794Z,-1.97
2019-02-15T05:53:19.060Z,-2.01
2019-02-15T05:55:49.319Z,-2.00
2019-02-15T05:58:19.596Z,-2.00
2019-02-15T06:00:50.098Z,-1.95
2019-02-15T06:03:20.354Z,-1.92
2019-02-15T06:05:50.902Z,-1.94
2019-02-15T06:08:21.131Z,-1.97
2019-02-15T06:10:52.786Z,-1.99
2019-02-15T06:13:23.740Z,-1.93
2019-02-15T06:15:54.405Z,-1.95
2019-02-15T06:18:25.336Z,-1.99
2019-02-15T06:20:55.918Z,-2.01
2019-02-15T06:23:26.157Z,-1.98
2019-02-15T06:25:56.409Z,-1.99
2019-02-15T06:28:26.691Z,-1.92
2019-02-15T06:30:57.267Z,-1.84
2019-02-15T06:33:27.646Z,-1.81
2019-02-15T06:35:57.890Z,-1.86
2019-02-15T06:38:34.739Z,-1.86
2019-02-15T06:41:01.821Z,-1.74
2019-02-15T06:43:32.473Z,-1.60
2019-02-15T06:46:02.775Z,-1.55
2019-02-15T06:48:33.670Z,-1.45
2019-02-15T06:51:03.895Z,-1.44
2019-02-15T06:53:34.838Z,-1.39
2019-02-15T06:56:05.127Z,-1.37
2019-02-15T06:58:45.482Z,-1.37
2019-02-15T07:01:22.136Z,-1.36
2019-02-15T07:04:17.148Z,-1.17
2019-02-15T07:06:48.104Z,-1.05
2019-02-15T07:09:18.390Z,-1.05
2019-02-15T07:11:48.628Z,-0.91
2019-02-15T07:14:20.887Z,-0.79
2019-02-15T07:16:51.651Z,-0.78
2019-02-15T07:19:21.904Z,-0.76
2019-02-15T07:21:52.519Z,-0.72
2019-02-15T07:24:22.799Z,-0.62
2019-02-15T07:26:53.123Z,-0.61
2019-02-15T07:29:23.631Z,-0.61
2019-02-15T07:31:54.185Z,-0.56
2019-02-15T07:34:24.712Z,-0.48
2019-02-15T07:36:55.270Z,-0.39
2019-02-15T07:39:25.829Z,-0.28
2019-02-15T07:41:56.451Z,-0.18
2019-02-15T07:44:27.377Z,-0.04
2019-02-15T07:46:58.006Z,0.09
2019-02-15T07:49:28.299Z,0.23
2019-02-15T07:51:59.545Z,0.43
2019-02-15T07:54:29.708Z,0.81
2019-02-15T07:57:00.324Z,1.29
2019-02-15T07:59:31.265Z,1.60
2019-02-15T08:02:02.185Z,2.01
2019-02-15T08:04:32.601Z,2.23
2019-02-15T08:07:02.862Z,2.49
2019-02-15T08:09:33.487Z,2.65
2019-02-15T08:12:04.117Z,2.70
2019-02-15T08:14:34.715Z,2.80
2019-02-15T08:17:04.933Z,3.10
2019-02-15T08:19:35.500Z,3.17
2019-02-15T08:22:05.782Z,3.26
2019-02-15T08:24:36.256Z,3.42
2019-02-15T08:27:06.889Z,3.67
2019-02-15T08:29:37.626Z,3.75
2019-02-15T08:32:07.871Z,3.90
2019-02-15T08:34:38.151Z,3.99
2019-02-15T08:37:08.715Z,4.11
2019-02-15T08:39:39.389Z,4.27
2019-02-15T08:42:09.691Z,4.33
2019-02-15T08:44:40.593Z,4.41
2019-02-15T08:47:10.900Z,4.53
2019-02-15T08:49:41.398Z,4.72
2019-02-15T08:52:11.601Z,4.78
2019-02-15T08:54:42.321Z,4.94
2019-02-15T08:57:12.568Z,5.10
2019-02-15T08:59:43.662Z,5.32
2019-02-15T09:02:22.908Z,5.49
2019-02-15T09:04:53.571Z,5.67
2019-02-15T09:07:23.846Z,5.81
2019-02-15T09:09:54.453Z,6.05
2019-02-15T09:12:24.757Z,6.13
2019-02-15T09:14:55.045Z,6.27
2019-02-15T09:17:27.280Z,6.39
2019-02-15T09:19:57.639Z,6.47
2019-02-15T09:22:28.264Z,6.56
2019-02-15T09:24:58.791Z,6.69
2019-02-15T09:27:37.627Z,6.82
2019-02-15T09:30:10.193Z,6.91
2019-02-15T09:32:40.942Z,6.95
2019-02-15T09:35:12.078Z,7.12
2019-02-15T09:37:42.652Z,7.23
2019-02-15T09:40:12.895Z,7.36
2019-02-15T09:42:43.212Z,7.46
2019-02-15T09:45:14.653Z,7.61
2019-02-15T09:47:47.023Z,7.81
2019-02-15T09:50:17.603Z,7.92
2019-02-15T09:52:48.747Z,8.07
2019-02-15T09:55:19.450Z,8.16
2019-02-15T09:57:49.625Z,8.26
2019-02-15T10:00:20.546Z,8.44
2019-02-15T10:02:51.071Z,8.64
2019-02-15T10:05:21.583Z,8.90
2019-02-15T10:07:51.789Z,9.06
2019-02-15T10:10:22.023Z,9.20
2019-02-15T10:12:52.641Z,9.39
2019-02-15T10:15:23.212Z,9.82
2019-02-15T10:17:53.459Z,10.84
2019-02-15T10:20:24.367Z,12.09
2019-02-15T10:22:55.084Z,13.46
2019-02-15T10:25:26.564Z,14.23
2019-02-15T10:27:56.815Z,15.13
2019-02-15T10:30:27.087Z,16.27
2019-02-15T10:32:57.935Z,16.53
2019-02-15T10:35:28.510Z,16.65
2019-02-15T10:37:59.085Z,16.90
2019-02-15T10:40:29.372Z,17.56
2019-02-15T10:42:59.695Z,17.50
2019-02-15T10:45:30.584Z,18.47
2019-02-15T10:48:00.841Z,18.46
2019-02-15T10:50:31.363Z,18.83
2019-02-15T10:53:02.077Z,18.87
2019-02-15T10:55:32.285Z,18.80
2019-02-15T10:58:02.548Z,18.74
2019-02-15T11:00:33.461Z,19.12
2019-02-15T11:03:03.642Z,18.06
2019-02-15T11:05:34.410Z,16.69
2019-02-15T11:08:04.689Z,17.35
2019-02-15T11:10:35.265Z,17.61
2019-02-15T11:13:05.899Z,16.85
2019-02-15T11:15:36.515Z,17.07
2019-02-15T11:18:06.791Z,16.82
2019-02-15T11:20:37.385Z,17.89
2019-02-15T11:23:07.640Z,18.32
2019-02-15T11:25:37.838Z,18.84
2019-02-15T11:28:08.138Z,18.84
2019-02-15T11:30:38.689Z,19.70
2019-02-15T11:33:09.406Z,20.14
2019-02-15T11:35:39.664Z,20.82
2019-02-15T11:38:10.169Z,21.26
2019-02-15T11:40:41.575Z,21.73
2019-02-15T11:43:12.462Z,21.53
2019-02-15T11:45:42.854Z,22.86
2019-02-15T11:48:13.481Z,22.79
2019-02-15T11:50:43.711Z,22.57
2019-02-15T11:53:14.071Z,23.21
2019-02-15T11:55:45.824Z,23.23
2019-02-15T11:58:16.869Z,24.23
2019-02-15T12:00:47.502Z,24.10
2019-02-15T12:03:18.128Z,23.34
2019-02-15T12:05:48.770Z,24.22
2019-02-15T12:08:19.362Z,24.02
2019-02-15T12:10:50.316Z,23.73
2019-02-15T12:13:20.937Z,24.32
2019-02-15T12:15:51.446Z,25.26
2019-02-15T12:18:22.331Z,25.73
2019-02-15T12:20:52.958Z,25.82
2019-02-15T12:23:23.133Z,25.97
2019-02-15T12:25:53.400Z,26.58
2019-02-15T12:28:23.897Z,25.79
2019-02-15T12:30:55.290Z,25.79
2019-02-15T12:33:25.919Z,25.13
2019-02-15T12:35:56.573Z,26.01
2019-02-15T12:38:26.756Z,26.94
2019-02-15T12:40:57.301Z,26.03
2019-02-15T12:43:27.907Z,26.88
2019-02-15T12:45:58.469Z,26.98
2019-02-15T12:48:29.302Z,26.83
2019-02-15T12:50:59.573Z,27.11
2019-02-15T12:53:30.159Z,26.17
2019-02-15T12:56:00.484Z,27.26
2019-02-15T12:58:31.109Z,27.97
2019-02-15T13:01:01.638Z,26.92
2019-02-15T13:03:32.253Z,27.01
2019-02-15T13:06:02.551Z,26.46
2019-02-15T13:08:33.431Z,27.13
2019-02-15T13:11:03.687Z,26.94
2019-02-15T13:13:34.552Z,28.46
2019-02-15T13:16:05.161Z,29.15
2019-02-15T13:18:35.755Z,29.76
2019-02-15T13:21:06.282Z,30.66
2019-02-15T13:23:36.593Z,30.52
2019-02-15T13:26:08.873Z,31.33
2019-02-15T13:28:39.870Z,31.42
2019-02-15T13:31:10.891Z,32.65
2019-02-15T13:33:41.251Z,32.72
2019-02-15T13:36:11.780Z,32.79
2019-02-15T13:38:42.347Z,33.36
2019-02-15T13:41:12.599Z,32.05
2019-02-15T13:43:43.325Z,31.74
2019-02-15T13:46:14.051Z,31.82
2019-02-15T13:48:44.739Z,33.53
2019-02-15T13:51:14.922Z,32.68
2019-02-15T13:53:45.289Z,33.16
2019-02-15T13:56:15.476Z,33.36
2019-02-15T13:58:45.751Z,32.63
2019-02-15T14:01:16.020Z,31.12
2019-02-15T14:03:46.400Z,31.09
2019-02-15T14:06:16.698Z,30.38
2019-02-15T14:08:47.271Z,31.57
2019-02-15T14:11:17.902Z,32.75
2019-02-15T14:13:48.998Z,32.63
2019-02-15T14:16:19.572Z,31.82
2019-02-15T14:18:49.840Z,31.49
2019-02-15T14:21:20.734Z,33.19
2019-02-15T14:23:51.737Z,31.94
2019-02-15T14:26:22.686Z,31.58
2019-02-15T14:28:52.888Z,31.55
2019-02-15T14:31:23.775Z,31.48
2019-02-15T14:33:54.311Z,32.31
2019-02-15T14:36:24.471Z,32.86
2019-02-15T14:38:55.465Z,31.85
2019-02-15T14:41:26.210Z,32.51
2019-02-15T14:43:56.523Z,32.57
2019-02-15T14:46:26.780Z,31.93
2019-02-15T14:48:58.004Z,33.08
2019-02-15T14:51:28.263Z,33.55
2019-02-15T14:53:58.539Z,32.19
2019-02-15T14:56:29.179Z,33.20
2019-02-15T14:59:00.014Z,32.63
2019-02-15T15:01:30.254Z,32.63
2019-02-15T15:04:01.173Z,31.61
2019-02-15T15:06:31.457Z,32.89
2019-02-15T15:09:01.814Z,32.61
2019-02-15T15:11:34.147Z,32.92
2019-02-15T15:14:04.729Z,33.25
2019-02-15T15:16:34.979Z,33.14
2019-02-15T15:19:05.255Z,32.88
2019-02-15T15:21:36.372Z,32.94
2019-02-15T15:24:06.922Z,32.62
2019-02-15T15:26:37.665Z,32.90
2019-02-15T15:29:07.892Z,31.82
2019-02-15T15:31:38.429Z,29.28
2019-02-15T15:34:08.659Z,24.49
2019-02-15T15:36:39.182Z,21.67
2019-02-15T15:39:09.388Z,19.82
2019-02-15T15:41:39.947Z,18.86
2019-02-15T15:44:11.487Z,17.84
2019-02-15T15:46:42.077Z,16.84
2019-02-15T15:49:12.635Z,16.37
2019-02-15T15:51:42.899Z,16.00
2019-02-15T15:54:13.566Z,15.70
2019-02-15T15:56:44.949Z,15.42
2019-02-15T15:59:15.480Z,15.08
2019-02-15T16:01:47.269Z,14.76
2019-02-15T16:04:17.598Z,14.62
2019-02-15T16:06:48.171Z,14.40
2019-02-15T16:09:18.733Z,14.15
2019-02-15T16:11:49.020Z,14.04
2019-02-15T16:14:19.582Z,14.00
2019-02-15T16:16:50.591Z,13.77
2019-02-15T16:19:21.580Z,13.61
2019-02-15T16:21:52.399Z,13.49
2019-02-15T16:24:23.425Z,13.31
2019-02-15T16:26:53.876Z,13.13
2019-02-15T16:29:24.166Z,13.05
2019-02-15T16:31:54.729Z,13.01
2019-02-15T16:34:25.370Z,12.83
2019-02-15T16:36:55.544Z,12.66
2019-02-15T16:39:25.778Z,12.47
2019-02-15T16:41:56.412Z,12.36
2019-02-15T16:44:27.271Z,12.23
2019-02-15T16:46:57.578Z,12.24
2019-02-15T16:49:28.118Z,11.98
2019-02-15T16:51:58.422Z,11.87
2019-02-15T16:54:29.207Z,11.59
2019-02-15T16:56:59.594Z,11.30
2019-02-15T16:59:30.552Z,10.99
2019-02-15T17:02:01.593Z,10.79
2019-02-15T17:04:32.706Z,10.56
2019-02-15T17:07:03.298Z,10.29
2019-02-15T17:09:34.471Z,10.10
2019-02-15T17:12:04.716Z,9.99
2019-02-15T17:14:35.034Z,9.96
2019-02-15T17:17:05.445Z,10.05
2019-02-15T17:19:35.733Z,10.34
2019-02-15T17:22:06.402Z,10.20
2019-02-15T17:24:37.237Z,10.18
2019-02-15T17:27:07.515Z,10.03
2019-02-15T17:29:38.458Z,9.95
2019-02-15T17:32:08.907Z,9.77
2019-02-15T17:34:39.090Z,9.66
2019-02-15T17:37:09.321Z,9.43
2019-02-15T17:39:39.688Z,9.29
2019-02-15T17:42:10.264Z,9.09
2019-02-15T17:44:41.344Z,8.91
2019-02-15T17:47:11.888Z,8.70
2019-02-15T17:49:43.610Z,8.48
2019-02-15T17:52:14.619Z,8.27
2019-02-15T17:54:45.023Z,8.20
2019-02-15T17:57:15.889Z,8.15
2019-02-15T17:59:46.168Z,8.01
2019-02-15T18:02:16.892Z,7.96
2019-02-15T18:04:47.593Z,7.94
2019-02-15T18:07:18.649Z,7.87
2019-02-15T18:09:49.119Z,7.89
2019-02-15T18:12:19.803Z,7.77
2019-02-15T18:14:51.058Z,7.92
2019-02-15T18:17:22.395Z,7.82
2019-02-15T18:19:52.964Z,7.72
2019-02-15T18:22:23.582Z,7.67
2019-02-15T18:24:54.304Z,7.48
2019-02-15T18:27:25.171Z,7.36
2019-02-15T18:29:56.070Z,7.60
2019-02-15T18:32:26.592Z,7.41
2019-02-15T18:34:57.438Z,7.27
2019-02-15T18:37:28.480Z,7.40
2019-02-15T18:40:00.036Z,7.72
2019-02-15T18:42:31.394Z,7.61
2019-02-15T18:45:02.357Z,7.72
2019-02-15T18:47:32.832Z,7.62
2019-02-15T18:50:03.998Z,7.37
2019-02-15T18:52:34.745Z,7.35
2019-02-15T18:55:05.819Z,7.40
2019-02-15T18:57:36.890Z,7.40
2019-02-15T19:00:09.516Z,7.30
2019-02-15T19:02:40.254Z,7.10
2019-02-15T19:05:12.375Z,7.04
2019-02-15T19:07:43.282Z,7.05
2019-02-15T19:10:15.733Z,7.17
2019-02-15T19:12:46.170Z,7.12
2019-02-15T19:15:16.902Z,6.88
2019-02-15T19:17:47.785Z,6.83
2019-02-15T19:20:20.805Z,6.93
2019-02-15T19:22:51.477Z,7.04
2019-02-15T19:25:22.253Z,6.95
2019-02-15T19:27:53.287Z,6.93
2019-02-15T19:30:24.788Z,6.83
2019-02-15T19:32:55.418Z,6.73
2019-02-15T19:35:26.914Z,6.61
2019-02-15T19:37:57.703Z,6.40
2019-02-15T19:40:28.079Z,6.43
2019-02-15T19:43:00.333Z,6.49
2019-02-15T19:45:31.101Z,6.49
2019-02-15T19:48:01.419Z,6.42
2019-02-15T19:50:32.518Z,6.28
2019-02-15T19:53:03.510Z,6.27
2019-02-15T19:55:33.844Z,6.18
2019-02-15T19:58:04.180Z,6.35
2019-02-15T20:00:35.734Z,6.16
2019-02-15T20:03:06.618Z,6.26
2019-02-15T20:05:37.363Z,6.27
2019-02-15T20:08:10.913Z,6.15
2019-02-15T20:10:41.648Z,5.86
2019-02-15T20:13:12.035Z,5.76
2019-02-15T20:15:43.213Z,5.79
2019-02-15T20:18:13.830Z,5.71
2019-02-15T20:20:44.739Z,5.93
2019-02-15T20:23:15.905Z,5.85
2019-02-15T20:25:46.560Z,5.74
2019-02-15T20:28:17.022Z,5.76
2019-02-15T20:30:48.060Z,5.67
2019-02-15T20:33:18.951Z,5.72
2019-02-15T20:35:49.481Z,5.52
2019-02-15T20:38:20.019Z,5.45
2019-02-15T20:40:50.750Z,5.50
2019-02-15T20:43:21.596Z,5.44
2019-02-15T20:45:51.994Z,5.45
2019-02-15T20:48:22.769Z,5.34
2019-02-15T20:50:53.075Z,5.29
2019-02-15T20:53:23.804Z,5.30
2019-02-15T20:55:54.136Z,5.23
2019-02-15T20:58:24.761Z,5.33
2019-02-15T21:00:56.338Z,5.27
2019-02-15T21:03:27.461Z,5.31
2019-02-15T21:05:58.091Z,5.18
2019-02-15T21:08:31.630Z,4.96
2019-02-15T21:11:01.887Z,4.85
2019-02-15T21:13:32.726Z,4.77
2019-02-15T21:16:03.072Z,4.75
2019-02-15T21:18:33.842Z,4.72
2019-02-15T21:21:05.000Z,4.82
2019-02-15T21:23:35.659Z,4.92
2019-02-15T21:26:06.006Z,4.82
2019-02-15T21:28:36.853Z,4.64
2019-02-15T21:31:07.149Z,4.69
2019-02-15T21:33:38.424Z,4.56
2019-02-15T21:36:08.728Z,4.45
2019-02-15T21:38:39.637Z,4.43
2019-02-15T21:41:10.522Z,4.61
2019-02-15T21:43:41.238Z,4.88
2019-02-15T21:46:12.207Z,4.91
2019-02-15T21:48:42.796Z,4.78
2019-02-15T21:51:14.292Z,4.71
2019-02-15T21:53:44.597Z,4.62
2019-02-15T21:56:14.904Z,4.47
2019-02-15T21:58:45.251Z,4.34
2019-02-15T22:01:15.879Z,4.17
2019-02-15T22:03:47.053Z,4.17
2019-02-15T22:06:17.524Z,4.08
2019-02-15T22:08:48.583Z,3.96
2019-02-15T22:11:19.438Z,3.85
2019-02-15T22:13:50.356Z,3.85
2019-02-15T22:16:21.630Z,3.78
2019-02-15T22:18:52.154Z,3.65
2019-02-15T22:21:23.288Z,3.78
2019-02-15T22:23:53.936Z,3.70
2019-02-15T22:26:24.258Z,3.55
2019-02-15T22:28:57.314Z,3.38
2019-02-15T22:31:27.564Z,3.21
2019-02-15T22:33:58.164Z,3.05
2019-02-15T22:36:28.676Z,2.92
2019-02-15T22:38:59.278Z,2.78
2019-02-15T22:41:29.879Z,2.71
2019-02-15T22:44:00.149Z,2.59
2019-02-15T22:46:31.102Z,2.58
2019-02-15T22:49:02.373Z,2.57
2019-02-15T22:51:32.712Z,2.53
2019-02-15T22:54:03.466Z,2.53
2019-02-15T22:56:34.060Z,2.57
2019-02-15T22:59:04.858Z,2.64
2019-02-15T23:01:36.620Z,2.82
2019-02-15T23:04:07.219Z,2.89
2019-02-15T23:06:38.359Z,2.93
2019-02-15T23:09:20.463Z,2.88
2019-02-15T23:11:50.914Z,2.84
2019-02-15T23:14:22.195Z,2.77
2019-02-15T23:16:53.420Z,2.77
2019-02-15T23:19:24.674Z,2.80
2019-02-15T23:21:55.564Z,2.80
2019-02-15T23:24:25.855Z,2.83
2019-02-15T23:26:56.619Z,2.90
2019-02-15T23:29:27.665Z,2.80
2019-02-15T23:31:58.302Z,2.68
2019-02-15T23:34:28.940Z,2.78
2019-02-15T23:36:59.253Z,2.73
2019-02-15T23:39:29.515Z,2.70
2019-02-15T23:42:00.420Z,2.60
2019-02-15T23:44:31.351Z,2.49
2019-02-15T23:47:01.573Z,2.54
2019-02-15T23:49:32.175Z,2.67
2019-02-15T23:52:02.430Z,2.58
2019-02-15T23:54:32.694Z,2.65
2019-02-15T23:57:03.676Z,2.72
2019-02-15T23:59:34.705Z,2.82
